Time;durP1;ratioP1;P1;durP2;ratioP2;P2;SDS_P1;SDS_P2;PMS_P1;PMS_P2;Temp;Humidity;BMP_temperature;BMP_pressure;BME280_temperature;BME280_humidity;BME280_pressure;Samples;Min_cycle;Max_cycle;Signal;HPM_P1;HPM_P2
2022/12/17 13:06:08;;;;;;;43.35;25.92;;;;;;;;;;4955803;29;20057;-82
2022/12/17 13:08:36;;;;;;;46.17;25.60;;;;;;;;;;4937990;29;20055;-82
2022/12/17 13:11:34;;;;;;;43.13;26.98;;;;;;;;;;4954254;29;20154;-82
2022/12/17 13:14:06;;;;;;;43.22;24.88;;;;;;;;;;4958116;29;20098;-82
2022/12/17 13:16:48;;;;;;;40.40;25.80;;;;;;;;;;4948421;29;20070;-82
2022/12/17 13:19:38;;;;;;;41.60;25.08;;;;;;;;;;4954328;29;20072;-82
2022/12/17 13:22:13;;;;;;;40.25;24.60;;;;;;;;;;4938266;29;20051;-82
2022/12/17 13:24:50;;;;;;;39.22;24.23;;;;;;;;;;4955585;29;20106;-84
2022/12/17 13:27:35;;;;;;;39.75;24.52;;;;;;;;;;4954015;28;20059;-82
2022/12/17 13:30:22;;;;;;;39.67;23.65;;;;;;;;;;4952292;29;20494;-77
2022/12/17 13:33:22;;;;;;;42.80;24.80;;;;;;;;;;4939737;29;20051;-80
2022/12/17 13:36:08;;;;;;;40.88;24.83;;;;;;;;;;4939587;29;20066;-81
2022/12/17 13:38:58;;;;;;;39.83;24.08;;;;;;;;;;4954596;29;20475;-81
2022/12/17 13:41:30;;;;;;;42.78;25.95;;;;;;;;;;4956483;29;20054;-82
2022/12/17 13:44:21;;;;;;;42.10;26.38;;;;;;;;;;4937425;29;20051;-81
2022/12/17 13:46:49;;;;;;;43.78;25.67;;;;;;;;;;4947129;29;20051;-82
2022/12/17 13:49:17;;;;;;;39.78;25.02;;;;;;;;;;4954926;28;20058;-81
2022/12/17 13:51:44;;;;;;;42.38;25.25;;;;;;;;;;4952655;28;20075;-81
2022/12/17 13:54:16;;;;;;;41.22;24.50;;;;;;;;;;4928310;29;20508;-82
2022/12/17 13:56:44;;;;;;;43.00;25.07;;;;;;;;;;4938942;29;20050;-82
2022/12/17 13:59:20;;;;;;;44.20;25.23;;;;;;;;;;4936466;28;20058;-81
2022/12/17 14:01:49;;;;;;;48.38;26.40;;;;;;;;;;4967599;28;20055;-81
2022/12/17 14:04:59;;;;;;;42.72;26.13;;;;;;;;;;4942398;29;20297;-81
2022/12/17 14:07:54;;;;;;;48.03;27.05;;;;;;;;;;4971877;28;20031;-81
2022/12/17 14:10:28;;;;;;;46.00;27.13;;;;;;;;;;4960812;28;20055;-81
2022/12/17 14:13:07;;;;;;;49.13;29.17;;;;;;;;;;4956445;29;20055;-80
2022/12/17 14:15:34;;;;;;;46.47;27.08;;;;;;;;;;4941307;29;20059;-82
2022/12/17 14:18:01;;;;;;;48.15;27.48;;;;;;;;;;4957389;28;20115;-82
2022/12/17 14:20:31;;;;;;;48.63;27.08;;;;;;;;;;4926599;29;20075;-82
2022/12/17 14:22:59;;;;;;;46.08;27.73;;;;;;;;;;4957411;29;20058;-82
2022/12/17 14:25:28;;;;;;;48.92;28.58;;;;;;;;;;4956163;28;20051;-82
2022/12/17 14:28:17;;;;;;;48.78;28.75;;;;;;;;;;4940424;29;20061;-81
2022/12/17 14:30:45;;;;;;;49.75;27.48;;;;;;;;;;4957350;29;20059;-82
2022/12/17 14:33:34;;;;;;;51.47;30.40;;;;;;;;;;4957998;29;20055;-83
2022/12/17 14:36:10;;;;;;;55.05;30.48;;;;;;;;;;4927338;29;20055;-82
2022/12/17 14:38:53;;;;;;;52.35;29.83;;;;;;;;;;4948544;29;20128;-83
2022/12/17 14:44:20;;;;;;;56.20;30.98;;;;;;;;;;4955803;29;20063;-83
2022/12/17 14:46:47;;;;;;;50.20;29.13;;;;;;;;;;4945776;29;20114;-81
2022/12/17 14:49:18;;;;;;;51.60;30.73;;;;;;;;;;4941519;29;20055;-84
2022/12/17 14:51:46;;;;;;;62.05;35.13;;;;;;;;;;4941541;29;20047;-83
2022/12/17 14:54:13;;;;;;;59.28;34.05;;;;;;;;;;4957557;28;20057;-90
2022/12/17 14:56:40;;;;;;;60.92;33.80;;;;;;;;;;4955228;29;20055;-84
2022/12/17 14:59:33;;;;;;;68.45;37.95;;;;;;;;;;4957676;28;20055;-85
2022/12/17 15:02:06;;;;;;;51.92;29.42;;;;;;;;;;4940293;29;20055;-82
2022/12/17 15:04:36;;;;;;;76.20;40.83;;;;;;;;;;4955978;29;20059;-84
2022/12/17 15:07:03;;;;;;;66.53;38.80;;;;;;;;;;4921678;29;20055;-84
2022/12/17 15:09:34;;;;;;;68.32;39.75;;;;;;;;;;4943223;29;20055;-83
2022/12/17 15:12:00;;;;;;;73.88;40.45;;;;;;;;;;4924368;28;20692;-83
2022/12/17 15:14:27;;;;;;;71.13;39.40;;;;;;;;;;4923779;29;20059;-83
2022/12/17 15:16:55;;;;;;;71.50;43.38;;;;;;;;;;4939490;29;20062;-83
2022/12/17 15:19:22;;;;;;;74.32;44.03;;;;;;;;;;4955455;28;20531;-81
2022/12/17 15:21:49;;;;;;;73.30;44.15;;;;;;;;;;4954999;29;20492;-80
2022/12/17 15:24:18;;;;;;;77.00;45.28;;;;;;;;;;4943175;28;20035;-83
2022/12/17 15:26:46;;;;;;;73.05;44.65;;;;;;;;;;4974439;28;20055;-80
2022/12/17 15:29:12;;;;;;;75.45;43.55;;;;;;;;;;4959242;29;20146;-81
2022/12/17 15:31:39;;;;;;;74.07;42.42;;;;;;;;;;4936097;29;20051;-80
2022/12/17 15:34:06;;;;;;;73.53;41.92;;;;;;;;;;4921963;29;20098;-80
2022/12/17 15:36:33;;;;;;;73.82;42.40;;;;;;;;;;4939730;29;20062;-79
2022/12/17 15:39:00;;;;;;;71.03;40.63;;;;;;;;;;4937533;29;20055;-80
2022/12/17 15:44:12;;;;;;;71.50;41.08;;;;;;;;;;4955449;29;20093;-80
2022/12/17 15:46:38;;;;;;;77.60;44.45;;;;;;;;;;4955283;29;20530;-81
2022/12/17 15:49:06;;;;;;;77.45;43.33;;;;;;;;;;4940793;29;20059;-80
2022/12/17 15:51:32;;;;;;;80.70;44.33;;;;;;;;;;4955383;29;20054;-80
2022/12/17 15:53:59;;;;;;;81.78;46.08;;;;;;;;;;4954571;29;20424;-80
2022/12/17 15:56:27;;;;;;;84.85;47.28;;;;;;;;;;4952680;28;20489;-80
2022/12/17 15:58:57;;;;;;;84.50;48.50;;;;;;;;;;4952711;28;20428;-80
2022/12/17 16:01:24;;;;;;;80.78;46.45;;;;;;;;;;4937981;29;20054;-80
2022/12/17 16:03:51;;;;;;;81.00;48.15;;;;;;;;;;4954373;28;20051;-82
2022/12/17 16:06:18;;;;;;;81.65;45.67;;;;;;;;;;4939161;28;20061;-80
2022/12/17 16:08:45;;;;;;;76.78;43.08;;;;;;;;;;4954797;29;20058;-82
2022/12/17 16:11:12;;;;;;;80.45;43.53;;;;;;;;;;4955193;28;20043;-82
2022/12/17 16:13:39;;;;;;;79.43;42.17;;;;;;;;;;4939102;29;20057;-81
2022/12/17 16:16:06;;;;;;;97.72;52.92;;;;;;;;;;4962052;28;20070;-82
2022/12/17 16:18:34;;;;;;;99.55;54.50;;;;;;;;;;4942705;29;20072;-82
2022/12/17 16:21:03;;;;;;;84.70;49.72;;;;;;;;;;4957217;28;20065;-81
2022/12/17 16:23:32;;;;;;;92.97;55.38;;;;;;;;;;4957139;28;20058;-81
2022/12/17 16:26:00;;;;;;;102.28;57.90;;;;;;;;;;4954188;28;20047;-82
2022/12/17 16:28:27;;;;;;;95.28;52.08;;;;;;;;;;4940247;29;20111;-81
2022/12/17 16:31:06;;;;;;;77.72;45.72;;;;;;;;;;4956054;29;20051;-81
2022/12/17 16:33:34;;;;;;;78.82;43.95;;;;;;;;;;4925201;28;20058;-81
2022/12/17 16:36:02;;;;;;;74.20;41.95;;;;;;;;;;4944719;29;20415;-79
2022/12/17 16:38:29;;;;;;;79.50;43.40;;;;;;;;;;4947925;29;20051;-79
2022/12/17 16:40:56;;;;;;;83.72;43.45;;;;;;;;;;4948844;28;20121;-80
2022/12/17 16:43:24;;;;;;;79.70;44.83;;;;;;;;;;4933728;29;20432;-80
2022/12/17 16:45:51;;;;;;;83.28;45.33;;;;;;;;;;4934835;29;20383;-80
2022/12/17 16:48:19;;;;;;;84.15;45.72;;;;;;;;;;4950836;28;20051;-81
2022/12/17 16:50:46;;;;;;;90.90;48.45;;;;;;;;;;4923339;29;20054;-80
2022/12/17 16:53:13;;;;;;;92.20;50.00;;;;;;;;;;4933965;29;20062;-79
2022/12/17 16:55:46;;;;;;;91.32;52.00;;;;;;;;;;4934619;29;20055;-82
2022/12/17 16:58:14;;;;;;;;;;;;;;;;;;4860053;28;20296;-81
2022/12/17 17:00:41;;;;;;;92.63;52.60;;;;;;;;;;4954247;28;20403;-81
2022/12/17 17:03:08;;;;;;;99.07;54.92;;;;;;;;;;4953454;29;20058;-81
2022/12/17 17:05:39;;;;;;;100.60;52.67;;;;;;;;;;4954798;29;20472;-81
2022/12/17 17:08:05;;;;;;;96.72;51.72;;;;;;;;;;4938817;29;20452;-80
2022/12/17 17:10:34;;;;;;;103.97;56.50;;;;;;;;;;4919729;28;20063;-81
2022/12/17 17:13:02;;;;;;;97.95;52.53;;;;;;;;;;4934565;29;20520;-80
2022/12/17 17:15:28;;;;;;;91.10;50.85;;;;;;;;;;4914388;28;20047;-80
2022/12/17 17:17:55;;;;;;;88.25;49.60;;;;;;;;;;4940322;29;20063;-81
2022/12/17 17:20:30;;;;;;;85.50;49.20;;;;;;;;;;4955652;29;20055;-82
2022/12/17 17:22:58;;;;;;;88.35;47.13;;;;;;;;;;4949867;29;20369;-81
2022/12/17 17:25:25;;;;;;;93.40;48.63;;;;;;;;;;4935136;28;20062;-80
2022/12/17 17:28:12;;;;;;;99.53;52.38;;;;;;;;;;4950798;28;20058;-80
2022/12/17 17:30:39;;;;;;;104.90;53.85;;;;;;;;;;4923061;29;20066;-80
2022/12/17 17:33:05;;;;;;;103.95;53.72;;;;;;;;;;4935541;29;20535;-80
2022/12/17 17:35:32;;;;;;;102.47;54.22;;;;;;;;;;4950583;29;20055;-79
2022/12/17 17:37:59;;;;;;;104.95;54.00;;;;;;;;;;4921254;29;20062;-82
2022/12/17 17:40:27;;;;;;;101.88;54.80;;;;;;;;;;4951035;28;20057;-78
2022/12/17 17:42:53;;;;;;;99.90;55.20;;;;;;;;;;4948313;29;20078;-81
2022/12/17 17:45:20;;;;;;;101.53;53.53;;;;;;;;;;4949797;29;20051;-82
2022/12/17 17:47:47;;;;;;;95.18;51.10;;;;;;;;;;4936322;29;20063;-82
2022/12/17 17:50:13;;;;;;;92.05;48.75;;;;;;;;;;4920065;29;20051;-82
2022/12/17 17:52:40;;;;;;;96.25;48.65;;;;;;;;;;4935620;29;20063;-82
2022/12/17 17:55:07;;;;;;;90.95;49.13;;;;;;;;;;4960105;28;20043;-82
2022/12/17 17:57:34;;;;;;;89.45;47.28;;;;;;;;;;4949658;29;20065;-83
2022/12/17 18:00:01;;;;;;;99.45;52.20;;;;;;;;;;4941965;29;20058;-82
2022/12/17 18:02:28;;;;;;;103.05;53.78;;;;;;;;;;4941069;29;20055;-82
2022/12/17 18:04:55;;;;;;;89.57;48.25;;;;;;;;;;4956931;28;20079;-82
2022/12/17 18:07:22;;;;;;;97.35;49.83;;;;;;;;;;4961413;29;20050;-82
2022/12/17 18:09:52;;;;;;;97.93;50.60;;;;;;;;;;4929006;29;20134;-83
2022/12/17 18:15:05;;;;;;;94.65;48.83;;;;;;;;;;4960839;29;20059;-83
2022/12/17 18:17:49;;;;;;;92.05;48.28;;;;;;;;;;4944927;29;20118;-83
2022/12/17 18:20:17;;;;;;;102.10;50.38;;;;;;;;;;4955063;29;20039;-80
2022/12/17 18:22:44;;;;;;;95.13;49.58;;;;;;;;;;4954185;29;20047;-86
2022/12/17 18:25:12;;;;;;;91.68;48.92;;;;;;;;;;4912474;28;20058;-81
2022/12/17 18:27:40;;;;;;;93.28;46.83;;;;;;;;;;4935363;29;20078;-80
2022/12/17 18:30:07;;;;;;;95.68;48.55;;;;;;;;;;4919733;29;20146;-80
2022/12/17 18:32:35;;;;;;;99.15;50.72;;;;;;;;;;4956182;29;20058;-81
2022/12/17 18:35:02;;;;;;;97.18;52.88;;;;;;;;;;4937330;29;20052;-80
2022/12/17 18:37:30;;;;;;;102.43;51.60;;;;;;;;;;4936914;29;20512;-80
2022/12/17 18:39:57;;;;;;;95.25;50.63;;;;;;;;;;4936530;29;20142;-81
2022/12/17 18:45:10;;;;;;;97.15;50.33;;;;;;;;;;4959661;28;20032;-82
2022/12/17 18:47:36;;;;;;;97.97;51.60;;;;;;;;;;4971894;28;20088;-80
2022/12/17 18:50:03;;;;;;;96.75;51.70;;;;;;;;;;4951432;29;20031;-80
2022/12/17 18:52:30;;;;;;;95.30;48.80;;;;;;;;;;4932798;29;20083;-79
2022/12/17 18:54:57;;;;;;;95.38;49.90;;;;;;;;;;4935182;29;21245;-82
2022/12/17 18:57:24;;;;;;;98.40;53.38;;;;;;;;;;4919585;29;20088;-81
2022/12/17 18:59:53;;;;;;;99.28;53.58;;;;;;;;;;4936012;29;20059;-82
2022/12/17 19:02:20;;;;;;;101.38;51.45;;;;;;;;;;4953476;29;20058;-82
2022/12/17 19:04:47;;;;;;;109.60;53.47;;;;;;;;;;4940635;29;20043;-82
2022/12/17 19:07:14;;;;;;;99.43;50.50;;;;;;;;;;4954530;28;20063;-82
2022/12/17 19:09:41;;;;;;;108.10;53.75;;;;;;;;;;4922959;29;20047;-82
2022/12/17 19:12:08;;;;;;;108.25;54.53;;;;;;;;;;4939000;29;20126;-81
2022/12/17 19:14:35;;;;;;;110.47;56.58;;;;;;;;;;4937818;29;20055;-81
2022/12/17 19:17:02;;;;;;;121.22;61.10;;;;;;;;;;4921725;29;20087;-82
2022/12/17 19:19:29;;;;;;;118.25;59.72;;;;;;;;;;4950790;29;20051;-81
2022/12/17 19:21:58;;;;;;;112.18;58.95;;;;;;;;;;4936885;29;20058;-81
2022/12/17 19:24:25;;;;;;;106.10;55.95;;;;;;;;;;4936617;29;20052;-81
2022/12/17 19:26:52;;;;;;;100.97;52.40;;;;;;;;;;4919119;29;20123;-81
2022/12/17 19:29:19;;;;;;;102.45;50.72;;;;;;;;;;4919732;29;20516;-81
2022/12/17 19:31:46;;;;;;;106.43;50.97;;;;;;;;;;4937015;29;20060;-81
2022/12/17 19:34:14;;;;;;;128.65;58.72;;;;;;;;;;4941525;29;20103;-81
2022/12/17 19:36:41;;;;;;;109.78;52.78;;;;;;;;;;4928999;29;20047;-80
2022/12/17 19:39:11;;;;;;;114.70;54.55;;;;;;;;;;4952280;28;20052;-81
2022/12/17 19:41:38;;;;;;;118.60;57.65;;;;;;;;;;4933111;29;20524;-80
2022/12/17 19:44:07;;;;;;;113.28;52.38;;;;;;;;;;4934241;29;20048;-80
2022/12/17 19:46:34;;;;;;;112.55;54.03;;;;;;;;;;4918455;29;20484;-80
2022/12/17 19:49:02;;;;;;;111.40;52.28;;;;;;;;;;4950059;28;20139;-80
2022/12/17 19:51:30;;;;;;;102.03;50.83;;;;;;;;;;4948531;29;20060;-80
2022/12/17 19:53:57;;;;;;;95.38;48.42;;;;;;;;;;4932964;29;20066;-80
2022/12/17 19:56:32;;;;;;;102.65;48.35;;;;;;;;;;4950055;28;20146;-80
2022/12/17 19:59:01;;;;;;;104.78;50.03;;;;;;;;;;4942955;29;20048;-80
2022/12/17 20:01:29;;;;;;;104.88;52.97;;;;;;;;;;4933923;29;20067;-81
2022/12/17 20:03:57;;;;;;;110.32;55.28;;;;;;;;;;4940119;29;20099;-80
2022/12/17 20:06:26;;;;;;;116.60;55.40;;;;;;;;;;4935274;29;20522;-81
2022/12/17 20:08:53;;;;;;;110.70;55.03;;;;;;;;;;4934418;29;20058;-80
2022/12/17 20:11:32;;;;;;;113.90;52.80;;;;;;;;;;4930371;29;20090;-80
2022/12/17 20:14:14;;;;;;;117.25;54.60;;;;;;;;;;4902348;29;20707;-80
2022/12/17 20:16:46;;;;;;;110.30;54.55;;;;;;;;;;4930592;29;20066;-79
2022/12/17 20:19:15;;;;;;;110.28;52.90;;;;;;;;;;4922875;28;20114;-79
2022/12/17 20:21:42;;;;;;;117.90;56.10;;;;;;;;;;4953904;29;20066;-79
2022/12/17 20:24:10;;;;;;;107.88;55.75;;;;;;;;;;4951226;29;20047;-79
2022/12/17 20:26:38;;;;;;;113.10;55.38;;;;;;;;;;4950982;28;20511;-79
2022/12/17 20:29:05;;;;;;;111.65;54.60;;;;;;;;;;4940699;29;20062;-80
2022/12/17 20:31:32;;;;;;;105.10;52.45;;;;;;;;;;4936474;29;20063;-79
2022/12/17 20:34:00;;;;;;;109.70;55.58;;;;;;;;;;4957448;28;20138;-79
2022/12/17 20:36:27;;;;;;;105.35;50.08;;;;;;;;;;4959543;28;20094;-79
2022/12/17 20:38:54;;;;;;;105.32;52.13;;;;;;;;;;4954613;29;20065;-79
2022/12/17 20:41:23;;;;;;;103.32;52.83;;;;;;;;;;4952815;28;20063;-80
2022/12/17 20:43:50;;;;;;;105.57;52.38;;;;;;;;;;4938208;29;20051;-80
2022/12/17 20:46:19;;;;;;;101.60;49.50;;;;;;;;;;4915524;28;20059;-79
2022/12/17 20:48:46;;;;;;;102.38;50.50;;;;;;;;;;4951115;29;20434;-79
2022/12/17 20:51:18;;;;;;;97.45;49.40;;;;;;;;;;4937274;28;20062;-80
2022/12/17 20:53:45;;;;;;;97.93;49.40;;;;;;;;;;4919107;29;20058;-80
2022/12/17 20:56:14;;;;;;;102.50;53.38;;;;;;;;;;4939017;28;20492;-79
2022/12/17 20:58:42;;;;;;;98.60;48.17;;;;;;;;;;4938300;29;20051;-79
2022/12/17 21:01:19;;;;;;;98.00;52.28;;;;;;;;;;4954027;29;20062;-82
2022/12/17 21:03:48;;;;;;;102.35;54.30;;;;;;;;;;4937052;29;20082;-81
2022/12/17 21:06:20;;;;;;;104.38;56.70;;;;;;;;;;4937192;29;20055;-82
2022/12/17 21:08:48;;;;;;;104.53;54.97;;;;;;;;;;4950690;28;20062;-80
2022/12/17 21:11:18;;;;;;;109.85;58.65;;;;;;;;;;4917069;29;20303;-79
2022/12/17 21:13:45;;;;;;;107.05;58.03;;;;;;;;;;4945969;28;20420;-78
2022/12/17 21:16:17;;;;;;;107.05;56.88;;;;;;;;;;4930551;29;20162;-78
2022/12/17 21:18:44;;;;;;;105.82;54.55;;;;;;;;;;4945293;28;21475;-80
2022/12/17 21:21:15;;;;;;;108.72;55.00;;;;;;;;;;4931158;29;20074;-80
2022/12/17 21:23:41;;;;;;;103.22;53.15;;;;;;;;;;4916703;29;20074;-78
2022/12/17 21:26:12;;;;;;;96.45;52.83;;;;;;;;;;4929464;29;20059;-78
2022/12/17 21:28:40;;;;;;;96.65;48.63;;;;;;;;;;4914374;29;20051;-79
2022/12/17 21:31:31;;;;;;;94.38;48.53;;;;;;;;;;4932080;29;20062;-79
2022/12/17 21:34:00;;;;;;;103.05;54.08;;;;;;;;;;4934869;29;20191;-78
2022/12/17 21:36:29;;;;;;;98.30;52.45;;;;;;;;;;4951340;28;20065;-79
2022/12/17 21:38:57;;;;;;;106.65;53.08;;;;;;;;;;4919138;29;20047;-79
2022/12/17 21:41:26;;;;;;;96.10;51.50;;;;;;;;;;4933589;29;20050;-79
2022/12/17 21:44:00;;;;;;;95.95;51.45;;;;;;;;;;4934039;29;20047;-78
2022/12/17 21:46:27;;;;;;;97.00;50.72;;;;;;;;;;4935935;29;20424;-78
2022/12/17 21:48:56;;;;;;;96.28;52.63;;;;;;;;;;4934042;29;20066;-78
2022/12/17 21:51:23;;;;;;;98.97;53.53;;;;;;;;;;4933614;29;20086;-78
2022/12/17 21:53:55;;;;;;;102.60;56.63;;;;;;;;;;4949435;28;20047;-78
2022/12/17 21:56:22;;;;;;;101.80;54.55;;;;;;;;;;4933751;28;20090;-78
2022/12/17 21:58:49;;;;;;;99.97;53.80;;;;;;;;;;4949247;28;20055;-78
2022/12/17 22:01:20;;;;;;;101.78;54.38;;;;;;;;;;4933306;29;20066;-79
2022/12/17 22:03:48;;;;;;;97.07;51.78;;;;;;;;;;4948982;29;20082;-79
2022/12/17 22:06:22;;;;;;;100.40;54.13;;;;;;;;;;4934565;29;20059;-78
2022/12/17 22:08:53;;;;;;;100.45;54.65;;;;;;;;;;4949051;29;20298;-79
2022/12/17 22:11:27;;;;;;;99.13;55.70;;;;;;;;;;4919316;29;20165;-78
2022/12/17 22:14:01;;;;;;;101.55;53.58;;;;;;;;;;4933885;29;20412;-78
2022/12/17 22:16:45;;;;;;;101.82;54.20;;;;;;;;;;4920801;29;20773;-78
2022/12/17 22:19:14;;;;;;;103.32;53.17;;;;;;;;;;4949000;29;20420;-79
2022/12/17 22:21:43;;;;;;;91.60;51.65;;;;;;;;;;4934081;29;20162;-79
2022/12/17 22:24:16;;;;;;;100.03;53.90;;;;;;;;;;4948605;28;20495;-78
2022/12/17 22:26:43;;;;;;;96.35;52.85;;;;;;;;;;4932850;29;20062;-78
2022/12/17 22:29:09;;;;;;;98.32;53.97;;;;;;;;;;4916910;29;20059;-79
2022/12/17 22:34:22;;;;;;;96.60;52.55;;;;;;;;;;4950149;29;20058;-76
2022/12/17 22:37:09;;;;;;;95.22;51.55;;;;;;;;;;4935455;29;20058;-78
2022/12/17 22:39:56;;;;;;;100.55;51.60;;;;;;;;;;4936121;29;20066;-78
2022/12/17 22:45:47;;;;;;;94.60;52.28;;;;;;;;;;4948563;29;20054;-78
2022/12/17 22:48:14;;;;;;;98.20;51.78;;;;;;;;;;4931866;29;20066;-78
2022/12/17 22:50:41;;;;;;;100.38;53.53;;;;;;;;;;4932777;29;20160;-78
2022/12/17 22:53:28;;;;;;;118.30;58.35;;;;;;;;;;4948542;29;20479;-78
2022/12/17 22:55:56;;;;;;;102.45;54.85;;;;;;;;;;4933533;29;20067;-77
2022/12/17 22:58:23;;;;;;;102.07;53.55;;;;;;;;;;4916952;29;20467;-77
2022/12/17 23:00:50;;;;;;;109.28;54.53;;;;;;;;;;4931677;29;21125;-77
2022/12/17 23:03:17;;;;;;;97.10;52.90;;;;;;;;;;4932244;29;20051;-77
2022/12/17 23:05:44;;;;;;;102.07;52.92;;;;;;;;;;4931765;29;20399;-77
2022/12/17 23:08:10;;;;;;;103.32;53.17;;;;;;;;;;4932131;29;20066;-76
2022/12/17 23:10:37;;;;;;;100.43;51.67;;;;;;;;;;4947019;28;20500;-77
2022/12/17 23:13:04;;;;;;;95.82;50.70;;;;;;;;;;4948256;29;20074;-77
2022/12/17 23:15:35;;;;;;;95.38;49.85;;;;;;;;;;4931905;28;20059;-77
2022/12/17 23:18:04;;;;;;;99.28;50.03;;;;;;;;;;4932131;29;20058;-77
2022/12/17 23:20:33;;;;;;;88.47;48.10;;;;;;;;;;4947788;28;20271;-75
2022/12/17 23:22:59;;;;;;;92.43;49.30;;;;;;;;;;4932137;29;20126;-77
2022/12/17 23:25:27;;;;;;;92.50;49.00;;;;;;;;;;4947963;29;20058;-77
2022/12/17 23:27:54;;;;;;;88.15;47.97;;;;;;;;;;4947150;29;20142;-77
2022/12/17 23:30:21;;;;;;;95.72;50.75;;;;;;;;;;4931975;28;20492;-76
2022/12/17 23:32:48;;;;;;;91.35;49.08;;;;;;;;;;4948760;28;20081;-77
2022/12/17 23:35:15;;;;;;;99.72;51.05;;;;;;;;;;4948529;29;20051;-77
2022/12/17 23:37:41;;;;;;;92.75;49.83;;;;;;;;;;4931435;29;20071;-77
2022/12/17 23:40:09;;;;;;;103.28;51.50;;;;;;;;;;4947756;29;20431;-78
2022/12/17 23:42:36;;;;;;;92.47;48.63;;;;;;;;;;4931092;28;20070;-78
2022/12/17 23:45:04;;;;;;;95.93;49.58;;;;;;;;;;4931635;29;20118;-78
2022/12/17 23:47:31;;;;;;;93.82;49.47;;;;;;;;;;4946948;29;20055;-78
2022/12/17 23:49:58;;;;;;;88.03;48.72;;;;;;;;;;4947190;29;20422;-78
2022/12/17 23:52:25;;;;;;;89.60;47.45;;;;;;;;;;4947439;28;20051;-78
2022/12/17 23:54:51;;;;;;;97.15;51.03;;;;;;;;;;4916707;29;20051;-78
2022/12/17 23:57:18;;;;;;;95.65;50.97;;;;;;;;;;4947760;28;20443;-78
2022/12/17 23:59:45;;;;;;;96.78;51.17;;;;;;;;;;4931948;29;20063;-78
